createdAt,value
2018-07-14T00:00:21.302Z,55.86
2018-07-14T00:01:22.076Z,56.11
2018-07-14T00:02:22.846Z,56.09
2018-07-14T00:03:23.621Z,56.05
2018-07-14T00:04:24.390Z,56.00
2018-07-14T00:05:25.197Z,56.23
2018-07-14T00:06:25.962Z,56.28
2018-07-14T00:07:26.734Z,56.38
2018-07-14T00:08:27.509Z,56.16
2018-07-14T00:09:28.282Z,56.29
2018-07-14T00:10:29.083Z,56.37
2018-07-14T00:11:30.212Z,56.33
2018-07-14T00:16:27.505Z,56.36
2018-07-14T00:17:28.275Z,56.33
2018-07-14T00:18:29.046Z,56.43
2018-07-14T00:19:29.816Z,56.62
2018-07-14T00:20:30.587Z,56.62
2018-07-14T00:21:31.382Z,56.49
2018-07-14T00:22:32.153Z,56.59
2018-07-14T00:23:32.924Z,56.42
2018-07-14T00:24:33.696Z,56.49
2018-07-14T00:25:34.465Z,56.42
2018-07-14T00:26:35.263Z,56.53
2018-07-14T00:27:36.034Z,56.15
2018-07-14T00:28:36.803Z,55.95
2018-07-14T00:29:37.572Z,56.27
2018-07-14T00:30:38.341Z,56.47
2018-07-14T00:31:39.141Z,56.33
2018-07-14T00:32:39.912Z,56.53
2018-07-14T00:33:40.686Z,56.51
2018-07-14T00:34:41.457Z,56.26
2018-07-14T00:35:42.232Z,56.45
2018-07-14T00:36:43.025Z,56.60
2018-07-14T00:37:43.797Z,56.56
2018-07-14T00:38:44.567Z,56.82
2018-07-14T00:39:45.339Z,56.53
2018-07-14T00:40:46.108Z,56.56
2018-07-14T00:41:46.904Z,56.26
2018-07-14T00:42:47.677Z,56.50
2018-07-14T00:43:48.447Z,56.45
2018-07-14T00:44:49.221Z,56.93
2018-07-14T00:45:49.991Z,57.08
2018-07-14T00:46:50.787Z,56.89
2018-07-14T00:47:51.558Z,56.90
2018-07-14T00:48:52.336Z,56.94
2018-07-14T00:49:53.101Z,56.83
2018-07-14T00:50:53.878Z,56.67
2018-07-14T00:51:54.667Z,56.85
2018-07-14T00:52:55.438Z,56.96
2018-07-14T00:53:56.212Z,56.82
2018-07-14T00:54:56.987Z,56.73
2018-07-14T00:55:57.756Z,56.72
2018-07-14T00:56:58.557Z,56.57
2018-07-14T00:57:59.327Z,56.82
2018-07-14T00:59:00.100Z,56.77
2018-07-14T01:00:00.867Z,56.71
2018-07-14T01:01:01.641Z,56.71
2018-07-14T01:02:02.467Z,56.70
2018-07-14T01:03:02.210Z,56.85
2018-07-14T01:04:03.984Z,56.72
2018-07-14T01:05:04.757Z,56.94
2018-07-14T01:06:05.525Z,56.70
2018-07-14T01:07:06.328Z,56.98
2018-07-14T01:08:07.099Z,56.86
2018-07-14T01:09:07.872Z,56.98
2018-07-14T01:10:08.643Z,57.15
2018-07-14T01:11:09.438Z,56.93
2018-07-14T01:12:10.213Z,56.98
2018-07-14T01:13:10.982Z,57.11
2018-07-14T01:14:11.759Z,57.21
2018-07-14T01:15:12.530Z,57.21
2018-07-14T01:16:13.298Z,57.01
2018-07-14T01:17:14.103Z,57.04
2018-07-14T01:18:14.875Z,57.12
2018-07-14T01:19:15.649Z,57.03
2018-07-14T01:20:16.419Z,57.04
2018-07-14T01:21:17.188Z,57.06
2018-07-14T01:22:17.986Z,57.10
2018-07-14T01:23:18.757Z,56.98
2018-07-14T01:24:19.526Z,56.89
2018-07-14T01:25:20.297Z,57.01
2018-07-14T01:26:21.070Z,57.13
2018-07-14T01:27:21.863Z,56.94
2018-07-14T01:28:22.638Z,56.92
2018-07-14T01:29:23.408Z,56.86
2018-07-14T01:30:24.176Z,56.88
2018-07-14T01:31:24.947Z,56.99
2018-07-14T01:32:25.745Z,56.94
2018-07-14T01:33:26.529Z,56.70
2018-07-14T01:34:27.292Z,56.86
2018-07-14T01:35:28.067Z,56.88
2018-07-14T01:36:28.834Z,56.93
2018-07-14T01:37:29.633Z,57.05
2018-07-14T01:38:30.401Z,57.05
2018-07-14T01:39:31.174Z,56.97
2018-07-14T01:40:32.088Z,56.89
2018-07-14T01:41:31.728Z,57.07
2018-07-14T01:42:33.528Z,57.02
2018-07-14T01:43:34.300Z,57.01
2018-07-14T01:44:34.073Z,57.09
2018-07-14T01:45:35.908Z,57.11
2018-07-14T01:46:36.844Z,57.14
2018-07-14T01:47:36.570Z,57.14
2018-07-14T01:48:38.341Z,57.46
2018-07-14T01:49:39.116Z,57.55
2018-07-14T01:50:39.891Z,57.53
2018-07-14T01:51:40.665Z,57.49
2018-07-14T01:52:41.455Z,57.37
2018-07-14T01:53:42.229Z,57.03
2018-07-14T01:54:42.999Z,57.21
2018-07-14T01:55:43.771Z,57.21
2018-07-14T01:56:44.550Z,57.30
2018-07-14T01:57:45.346Z,57.43
2018-07-14T01:58:46.119Z,57.36
2018-07-14T01:59:46.897Z,57.84
2018-07-14T02:00:47.662Z,57.90
2018-07-14T02:01:48.445Z,57.69
2018-07-14T02:02:49.240Z,57.73
2018-07-14T02:03:50.016Z,57.77
2018-07-14T02:04:50.791Z,57.50
2018-07-14T02:05:51.570Z,57.67
2018-07-14T02:06:52.725Z,57.58
2018-07-14T02:13:42.576Z,57.62
2018-07-14T02:14:43.352Z,57.58
2018-07-14T02:15:44.119Z,57.84
2018-07-14T02:16:44.889Z,57.75
2018-07-14T02:17:45.660Z,58.05
2018-07-14T02:18:46.461Z,58.01
2018-07-14T02:19:47.226Z,58.12
2018-07-14T02:20:47.999Z,57.95
2018-07-14T02:21:48.776Z,57.83
2018-07-14T02:22:49.547Z,57.69
2018-07-14T02:23:50.344Z,57.71
2018-07-14T02:24:51.116Z,58.08
2018-07-14T02:25:51.888Z,58.35
2018-07-14T02:26:52.660Z,57.96
2018-07-14T02:27:53.434Z,58.17
2018-07-14T02:28:54.223Z,58.19
2018-07-14T02:29:54.994Z,58.34
2018-07-14T02:30:55.767Z,58.53
2018-07-14T02:31:56.541Z,58.47
2018-07-14T02:32:57.311Z,58.47
2018-07-14T02:33:58.108Z,58.41
2018-07-14T02:34:58.879Z,58.65
2018-07-14T02:35:59.652Z,58.83
2018-07-14T02:37:00.427Z,58.83
2018-07-14T02:38:00.194Z,58.78
2018-07-14T02:39:01.996Z,58.74
2018-07-14T02:40:02.766Z,58.70
2018-07-14T02:41:03.541Z,58.58
2018-07-14T02:42:04.318Z,58.63
2018-07-14T02:43:05.084Z,58.49
2018-07-14T02:44:05.877Z,58.61
2018-07-14T02:45:06.650Z,58.62
2018-07-14T02:46:07.422Z,58.71
2018-07-14T02:47:08.195Z,58.50
2018-07-14T02:48:08.965Z,58.52
2018-07-14T02:49:09.768Z,58.33
2018-07-14T02:50:10.535Z,58.56
2018-07-14T02:51:11.311Z,58.80
2018-07-14T02:52:12.085Z,58.82
2018-07-14T02:53:12.858Z,58.77
2018-07-14T02:54:13.657Z,58.97
2018-07-14T02:55:14.424Z,58.82
2018-07-14T02:56:15.197Z,59.02
2018-07-14T02:57:15.970Z,59.09
2018-07-14T02:58:16.747Z,58.77
2018-07-14T02:59:17.544Z,59.17
2018-07-14T03:00:18.318Z,59.24
2018-07-14T03:01:19.091Z,58.93
2018-07-14T03:02:19.875Z,58.98
2018-07-14T03:03:19.645Z,58.79
2018-07-14T03:04:21.453Z,58.97
2018-07-14T03:05:22.217Z,59.15
2018-07-14T03:06:22.988Z,59.23
2018-07-14T03:07:23.767Z,59.43
2018-07-14T03:08:24.538Z,59.41
2018-07-14T03:09:25.332Z,59.63
2018-07-14T03:10:26.102Z,59.47
2018-07-14T03:11:26.874Z,59.35
2018-07-14T03:12:27.654Z,59.35
2018-07-14T03:13:28.420Z,59.32
2018-07-14T03:14:29.218Z,59.43
2018-07-14T03:15:29.988Z,59.52
2018-07-14T03:16:30.759Z,59.42
2018-07-14T03:17:31.532Z,59.54
2018-07-14T03:18:32.307Z,59.50
2018-07-14T03:19:33.250Z,59.35
2018-07-14T03:20:32.873Z,59.29
2018-07-14T03:21:34.650Z,58.95
2018-07-14T03:22:35.419Z,59.12
2018-07-14T03:23:36.196Z,59.30
2018-07-14T03:24:36.998Z,59.23
2018-07-14T03:25:37.767Z,59.36
2018-07-14T03:26:38.543Z,59.68
2018-07-14T03:27:39.313Z,59.40
2018-07-14T03:28:40.090Z,59.50
2018-07-14T03:29:40.883Z,59.49
2018-07-14T03:30:41.664Z,59.31
2018-07-14T03:31:42.429Z,59.63
2018-07-14T03:32:43.197Z,59.68
2018-07-14T03:33:43.966Z,59.53
2018-07-14T03:34:44.771Z,59.50
2018-07-14T03:35:45.540Z,59.55
2018-07-14T03:36:46.442Z,59.44
2018-07-14T03:37:46.089Z,59.40
2018-07-14T03:38:47.864Z,59.33
2018-07-14T03:39:48.661Z,59.43
2018-07-14T03:40:49.436Z,59.49
2018-07-14T03:41:50.215Z,59.55
2018-07-14T03:42:50.983Z,59.54
2018-07-14T03:43:51.758Z,59.68
2018-07-14T03:44:52.548Z,59.84
2018-07-14T03:45:53.322Z,59.97
2018-07-14T03:46:54.091Z,60.09
2018-07-14T03:47:54.864Z,59.86
2018-07-14T03:48:55.636Z,59.89
2018-07-14T03:49:56.431Z,59.75
2018-07-14T03:50:57.213Z,59.82
2018-07-14T03:51:57.978Z,59.72
2018-07-14T03:52:58.756Z,59.96
2018-07-14T03:53:59.525Z,59.81
2018-07-14T03:55:00.317Z,59.69
2018-07-14T03:56:01.098Z,59.74
2018-07-14T03:57:01.909Z,59.46
2018-07-14T03:58:01.639Z,59.22
2018-07-14T03:59:03.413Z,58.92
2018-07-14T04:00:04.215Z,59.55
2018-07-14T04:01:04.989Z,59.76
2018-07-14T04:02:05.760Z,59.64
2018-07-14T04:03:06.534Z,59.54
2018-07-14T04:04:07.311Z,59.16
2018-07-14T04:05:08.472Z,58.99
2018-07-14T04:17:27.986Z,59.50
2018-07-14T04:18:28.759Z,59.49
2018-07-14T04:19:29.530Z,60.01
2018-07-14T04:20:30.327Z,59.63
2018-07-14T04:21:31.097Z,59.41
2018-07-14T04:22:31.869Z,59.59
2018-07-14T04:23:32.640Z,59.89
2018-07-14T04:24:33.415Z,59.54
2018-07-14T04:25:34.209Z,59.93
2018-07-14T04:26:34.980Z,59.79
2018-07-14T04:27:35.751Z,59.47
2018-07-14T04:28:36.526Z,59.72
2018-07-14T04:29:37.297Z,59.52
2018-07-14T04:30:38.088Z,59.51
2018-07-14T04:31:38.862Z,59.45
2018-07-14T04:32:39.633Z,59.25
2018-07-14T04:33:40.410Z,59.14
2018-07-14T04:34:40.179Z,59.31
2018-07-14T04:35:41.976Z,59.45
2018-07-14T04:36:42.745Z,59.37
2018-07-14T04:37:43.516Z,59.38
2018-07-14T04:38:44.285Z,59.16
2018-07-14T04:39:45.060Z,59.31
2018-07-14T04:40:45.855Z,59.34
2018-07-14T04:41:46.626Z,59.28
2018-07-14T04:42:47.396Z,59.24
2018-07-14T04:43:48.168Z,59.05
2018-07-14T04:44:48.941Z,59.07
2018-07-14T04:45:49.745Z,58.90
2018-07-14T04:46:50.512Z,59.01
2018-07-14T04:47:51.288Z,59.11
2018-07-14T04:48:52.056Z,59.28
2018-07-14T04:49:52.835Z,59.34
2018-07-14T04:50:53.624Z,59.58
2018-07-14T04:51:54.398Z,59.54
2018-07-14T04:52:55.169Z,59.58
2018-07-14T04:53:55.941Z,59.91
2018-07-14T04:54:56.713Z,59.46
2018-07-14T04:55:57.508Z,59.34
2018-07-14T04:56:58.279Z,59.15
2018-07-14T04:57:59.050Z,58.76
2018-07-14T04:58:59.826Z,59.14
2018-07-14T05:00:00.596Z,58.99
2018-07-14T05:01:01.387Z,59.08
2018-07-14T05:02:02.162Z,59.32
2018-07-14T05:03:02.937Z,59.14
2018-07-14T05:04:03.706Z,59.07
2018-07-14T05:05:04.481Z,59.04
2018-07-14T05:06:05.275Z,59.29
2018-07-14T05:07:06.052Z,59.27
2018-07-14T05:08:06.821Z,59.16
2018-07-14T05:09:07.595Z,59.31
2018-07-14T05:10:08.367Z,59.37
2018-07-14T05:11:09.163Z,59.19
2018-07-14T05:12:09.934Z,59.28
2018-07-14T05:13:10.704Z,59.18
2018-07-14T05:14:11.484Z,59.18
2018-07-14T05:15:12.251Z,58.55
2018-07-14T05:16:13.052Z,58.92
2018-07-14T05:17:13.822Z,58.84
2018-07-14T05:18:14.593Z,58.87
2018-07-14T05:19:15.367Z,58.86
2018-07-14T05:20:16.141Z,58.62
2018-07-14T05:21:16.981Z,58.56
2018-07-14T05:22:16.707Z,58.58
2018-07-14T05:23:18.484Z,58.34
2018-07-14T05:24:19.258Z,58.50
2018-07-14T05:25:20.068Z,58.28
2018-07-14T05:26:19.827Z,58.23
2018-07-14T05:27:21.602Z,58.34
2018-07-14T05:28:21.373Z,58.24
2018-07-14T05:29:23.143Z,58.02
2018-07-14T05:30:23.922Z,57.93
2018-07-14T05:31:24.717Z,58.00
2018-07-14T05:32:25.491Z,58.06
2018-07-14T05:33:26.265Z,57.87
2018-07-14T05:34:27.043Z,57.83
2018-07-14T05:35:27.812Z,57.77
2018-07-14T05:36:28.614Z,57.37
2018-07-14T05:37:29.382Z,57.45
2018-07-14T05:38:30.154Z,57.46
2018-07-14T05:39:30.928Z,57.33
2018-07-14T05:40:31.705Z,57.33
2018-07-14T05:41:32.495Z,57.26
2018-07-14T05:42:33.266Z,57.38
2018-07-14T05:43:34.038Z,57.14
2018-07-14T05:44:34.820Z,57.57
2018-07-14T05:45:35.588Z,57.46
2018-07-14T05:46:36.391Z,57.48
2018-07-14T05:47:37.155Z,57.21
2018-07-14T05:48:37.933Z,57.25
2018-07-14T05:49:38.701Z,56.93
2018-07-14T05:50:39.477Z,56.69
2018-07-14T05:51:40.276Z,56.46
2018-07-14T05:52:41.054Z,56.65
2018-07-14T05:53:41.821Z,56.46
2018-07-14T05:54:42.594Z,56.24
2018-07-14T05:55:43.366Z,56.06
2018-07-14T05:56:44.170Z,56.18
2018-07-14T05:57:44.939Z,56.27
2018-07-14T05:58:45.715Z,56.32
2018-07-14T05:59:46.490Z,56.26
2018-07-14T06:00:47.261Z,56.28
2018-07-14T06:01:48.052Z,56.10
2018-07-14T06:02:48.828Z,56.23
2018-07-14T06:03:49.600Z,55.91
2018-07-14T06:04:50.378Z,55.80
2018-07-14T06:05:51.148Z,55.68
2018-07-14T06:06:51.943Z,55.55
2018-07-14T06:07:53.098Z,55.24
2018-07-14T06:08:53.275Z,55.07
2018-07-14T06:13:47.084Z,55.24
2018-07-14T06:14:48.855Z,55.20
2018-07-14T06:15:49.627Z,54.94
2018-07-14T06:16:50.396Z,55.01
2018-07-14T06:17:51.167Z,55.04
2018-07-14T06:18:51.962Z,54.96
2018-07-14T06:19:52.733Z,55.07
2018-07-14T06:20:53.505Z,55.00
2018-07-14T06:21:54.280Z,55.21
2018-07-14T06:22:55.054Z,55.30
2018-07-14T06:23:55.850Z,55.09
2018-07-14T06:24:56.629Z,55.01
2018-07-14T06:25:57.395Z,54.79
2018-07-14T06:26:58.167Z,54.68
2018-07-14T06:27:58.939Z,54.47
2018-07-14T06:28:59.733Z,54.46
2018-07-14T06:30:00.506Z,54.25
2018-07-14T06:31:01.283Z,54.12
2018-07-14T06:32:02.144Z,54.07
2018-07-14T06:33:01.828Z,54.22
2018-07-14T06:34:03.632Z,54.12
2018-07-14T06:35:04.397Z,53.79
2018-07-14T06:36:05.204Z,53.65
2018-07-14T06:37:05.947Z,53.53
2018-07-14T06:38:06.729Z,53.57
2018-07-14T06:39:07.515Z,53.51
2018-07-14T06:40:08.291Z,53.63
2018-07-14T06:41:09.060Z,53.61
2018-07-14T06:42:09.831Z,53.62
2018-07-14T06:43:10.610Z,53.52
2018-07-14T06:44:11.408Z,53.38
2018-07-14T06:45:12.178Z,52.86
2018-07-14T06:46:12.950Z,53.04
2018-07-14T06:47:13.721Z,52.87
2018-07-14T06:48:14.497Z,52.71
2018-07-14T06:49:15.290Z,52.91
2018-07-14T06:50:16.067Z,52.97
2018-07-14T06:51:16.836Z,52.61
2018-07-14T06:52:17.608Z,52.61
2018-07-14T06:53:18.385Z,52.58
2018-07-14T06:54:19.218Z,52.25
2018-07-14T06:55:18.952Z,52.28
2018-07-14T06:56:20.724Z,52.27
2018-07-14T06:57:21.499Z,51.79
2018-07-14T06:58:22.273Z,51.75
2018-07-14T06:59:23.069Z,51.98
2018-07-14T07:00:23.838Z,51.86
2018-07-14T07:01:24.610Z,51.87
2018-07-14T07:02:25.384Z,51.66
2018-07-14T07:03:26.229Z,51.56
2018-07-14T07:04:25.957Z,51.38
2018-07-14T07:05:27.724Z,51.01
2018-07-14T07:06:28.496Z,50.90
2018-07-14T07:07:29.270Z,51.24
2018-07-14T07:08:30.044Z,51.02
2018-07-14T07:09:30.847Z,51.06
2018-07-14T07:10:31.612Z,50.05
2018-07-14T07:11:32.386Z,48.87
2018-07-14T07:12:33.158Z,48.89
2018-07-14T07:13:33.939Z,49.22
2018-07-14T07:14:34.727Z,49.19
2018-07-14T07:15:35.502Z,48.80
2018-07-14T07:16:36.284Z,49.14
2018-07-14T07:17:37.058Z,48.58
2018-07-14T07:18:37.832Z,48.66
2018-07-14T07:19:38.631Z,48.73
2018-07-14T07:20:39.400Z,48.56
2018-07-14T07:21:40.170Z,48.88
2018-07-14T07:22:40.942Z,49.45
2018-07-14T07:23:41.714Z,48.59
2018-07-14T07:24:42.508Z,48.65
2018-07-14T07:25:43.283Z,48.46
2018-07-14T07:26:44.055Z,48.31
2018-07-14T07:27:44.828Z,48.32
2018-07-14T07:28:45.653Z,48.23
2018-07-14T07:29:45.405Z,48.23
2018-07-14T07:30:47.177Z,48.25
2018-07-14T07:31:47.951Z,48.21
2018-07-14T07:32:48.725Z,48.19
2018-07-14T07:33:49.501Z,48.12
2018-07-14T07:34:49.296Z,47.95
2018-07-14T07:35:51.072Z,47.77
2018-07-14T07:36:51.840Z,47.67
2018-07-14T07:37:52.618Z,47.50
2018-07-14T07:38:53.473Z,47.26
2018-07-14T07:39:53.577Z,46.99
2018-07-14T07:40:53.270Z,46.68
2018-07-14T07:41:55.047Z,46.48
2018-07-14T07:42:55.814Z,46.32
2018-07-14T07:43:56.593Z,46.20
2018-07-14T07:44:57.385Z,46.04
2018-07-14T07:45:58.157Z,45.89
2018-07-14T07:46:58.934Z,45.76
2018-07-14T07:47:59.700Z,45.62
2018-07-14T07:49:00.510Z,45.50
2018-07-14T07:50:01.294Z,45.34
2018-07-14T07:51:02.071Z,45.26
2018-07-14T07:52:02.876Z,45.13
2018-07-14T07:53:03.616Z,44.87
2018-07-14T07:54:04.387Z,44.34
2018-07-14T07:55:05.183Z,43.23
2018-07-14T07:56:05.955Z,41.98
2018-07-14T07:57:06.728Z,40.94
2018-07-14T07:58:07.508Z,40.24
2018-07-14T07:59:08.404Z,39.67
2018-07-14T08:00:08.074Z,39.27
2018-07-14T08:01:09.844Z,38.98
2018-07-14T08:02:10.619Z,38.65
2018-07-14T08:03:11.389Z,38.36
2018-07-14T08:04:12.167Z,37.99
2018-07-14T08:05:12.966Z,37.68
2018-07-14T08:06:13.746Z,37.34
2018-07-14T08:07:14.613Z,37.04
2018-07-14T08:08:14.684Z,36.76
2018-07-14T08:09:15.867Z,36.53
2018-07-14T08:10:15.087Z,36.34
2018-07-14T08:11:15.276Z,36.05
2018-07-14T08:13:31.667Z,35.22
2018-07-14T08:14:32.442Z,35.21
2018-07-14T08:15:33.238Z,34.91
2018-07-14T08:16:34.005Z,34.59
2018-07-14T08:17:34.778Z,34.23
2018-07-14T08:18:35.548Z,34.03
2018-07-14T08:19:36.320Z,33.79
2018-07-14T08:20:37.113Z,33.55
2018-07-14T08:21:37.885Z,33.33
2018-07-14T08:22:38.679Z,33.05
2018-07-14T08:23:39.431Z,32.83
2018-07-14T08:24:40.208Z,32.69
2018-07-14T08:25:41.005Z,32.51
2018-07-14T08:26:41.769Z,32.30
2018-07-14T08:27:42.542Z,32.12
2018-07-14T08:28:43.312Z,32.03
2018-07-14T08:29:44.083Z,31.76
2018-07-14T08:30:44.881Z,31.66
2018-07-14T08:31:45.654Z,31.57
2018-07-14T08:32:46.427Z,31.33
2018-07-14T08:33:47.198Z,31.26
2018-07-14T08:34:47.973Z,31.21
2018-07-14T08:35:48.775Z,30.98
2018-07-14T08:36:49.546Z,30.80
2018-07-14T08:37:50.323Z,30.66
2018-07-14T08:38:51.091Z,30.54
2018-07-14T08:39:51.863Z,30.40
2018-07-14T08:40:52.659Z,30.27
2018-07-14T08:41:53.429Z,30.18
2018-07-14T08:42:54.205Z,30.12
2018-07-14T08:43:54.973Z,29.98
2018-07-14T08:44:55.755Z,30.07
2018-07-14T08:45:56.549Z,29.88
2018-07-14T08:46:57.320Z,29.69
2018-07-14T08:47:58.094Z,29.59
2018-07-14T08:48:58.863Z,29.53
2018-07-14T08:49:59.673Z,29.38
2018-07-14T08:51:00.450Z,29.34
2018-07-14T08:52:00.223Z,29.17
2018-07-14T08:53:01.994Z,29.19
2018-07-14T08:54:02.765Z,28.93
2018-07-14T08:55:03.541Z,28.90
2018-07-14T08:56:04.334Z,28.76
2018-07-14T08:57:05.105Z,28.74
2018-07-14T08:58:05.891Z,28.68
2018-07-14T08:59:06.650Z,28.52
2018-07-14T09:00:07.434Z,28.40
2018-07-14T09:01:08.338Z,28.33
2018-07-14T09:02:09.104Z,28.28
2018-07-14T09:03:09.872Z,28.31
2018-07-14T09:04:10.643Z,28.27
2018-07-14T09:05:11.417Z,28.22
2018-07-14T09:06:12.209Z,28.18
2018-07-14T09:07:12.986Z,28.09
2018-07-14T09:08:13.757Z,27.93
2018-07-14T09:09:14.542Z,27.76
2018-07-14T09:10:15.307Z,27.78
2018-07-14T09:11:16.108Z,27.71
2018-07-14T09:12:16.879Z,27.67
2018-07-14T09:13:17.658Z,27.57
2018-07-14T09:14:18.422Z,27.41
2018-07-14T09:15:19.199Z,27.34
2018-07-14T09:16:20.043Z,27.24
2018-07-14T09:17:19.768Z,27.17
2018-07-14T09:18:21.542Z,27.23
2018-07-14T09:19:22.314Z,27.24
2018-07-14T09:20:23.088Z,27.30
2018-07-14T09:21:23.882Z,27.15
2018-07-14T09:22:24.655Z,27.13
2018-07-14T09:23:25.429Z,27.08
2018-07-14T09:24:26.199Z,26.95
2018-07-14T09:25:26.985Z,26.79
2018-07-14T09:26:27.773Z,26.77
2018-07-14T09:27:28.548Z,26.94
2018-07-14T09:28:29.316Z,26.78
2018-07-14T09:29:30.087Z,26.83
2018-07-14T09:30:30.902Z,26.71
2018-07-14T09:31:30.659Z,26.76
2018-07-14T09:32:32.448Z,26.54
2018-07-14T09:33:33.271Z,26.54
2018-07-14T09:34:32.973Z,26.45
2018-07-14T09:35:34.745Z,26.46
2018-07-14T09:36:35.551Z,26.38
2018-07-14T09:37:36.319Z,26.40
2018-07-14T09:38:37.087Z,26.41
2018-07-14T09:39:37.866Z,26.55
2018-07-14T09:40:38.634Z,26.41
2018-07-14T09:41:39.434Z,26.52
2018-07-14T09:42:40.209Z,26.33
2018-07-14T09:43:40.978Z,26.30
2018-07-14T09:44:41.821Z,26.24
2018-07-14T09:45:41.522Z,26.28
2018-07-14T09:46:43.320Z,26.57
2018-07-14T09:47:44.157Z,26.11
2018-07-14T09:48:43.871Z,26.32
2018-07-14T09:49:45.636Z,26.20
2018-07-14T09:50:46.415Z,26.33
2018-07-14T09:51:47.208Z,26.20
2018-07-14T09:52:47.983Z,26.14
2018-07-14T09:53:48.756Z,26.15
2018-07-14T09:54:49.528Z,26.02
2018-07-14T09:55:50.309Z,26.11
2018-07-14T09:56:51.101Z,26.10
2018-07-14T09:57:51.877Z,26.02
2018-07-14T09:58:52.648Z,26.03
2018-07-14T09:59:53.421Z,26.22
2018-07-14T10:00:54.196Z,26.22
2018-07-14T10:01:54.994Z,26.34
2018-07-14T10:02:55.765Z,26.40
2018-07-14T10:03:56.538Z,26.37
2018-07-14T10:04:57.308Z,26.38
2018-07-14T10:05:58.452Z,26.37
2018-07-14T10:16:50.977Z,27.39
2018-07-14T10:17:51.774Z,27.32
2018-07-14T10:18:52.545Z,27.59
2018-07-14T10:19:53.314Z,27.58
2018-07-14T10:20:54.088Z,27.97
2018-07-14T10:21:54.860Z,28.09
2018-07-14T10:22:55.649Z,28.23
2018-07-14T10:23:56.424Z,28.59
2018-07-14T10:24:57.214Z,28.66
2018-07-14T10:25:58.067Z,28.85
2018-07-14T10:26:57.746Z,29.19
2018-07-14T10:27:59.544Z,29.26
2018-07-14T10:29:00.371Z,29.47
2018-07-14T10:30:00.100Z,29.58
2018-07-14T10:31:01.858Z,29.78
2018-07-14T10:32:02.627Z,30.14
2018-07-14T10:33:03.425Z,30.33
2018-07-14T10:34:04.299Z,30.65
2018-07-14T10:35:03.968Z,30.65
2018-07-14T10:36:05.741Z,30.87
2018-07-14T10:37:06.513Z,31.14
2018-07-14T10:38:07.319Z,31.60
2018-07-14T10:39:08.087Z,31.83
2018-07-14T10:40:08.863Z,31.93
2018-07-14T10:41:09.633Z,32.06
2018-07-14T10:42:10.494Z,32.22
2018-07-14T10:43:10.205Z,32.21
2018-07-14T10:44:11.986Z,32.37
2018-07-14T10:45:12.751Z,32.57
2018-07-14T10:46:13.524Z,32.42
2018-07-14T10:47:14.296Z,32.38
2018-07-14T10:48:15.095Z,32.40
2018-07-14T10:49:15.866Z,32.40
2018-07-14T10:50:16.641Z,32.24
2018-07-14T10:51:17.410Z,32.34
2018-07-14T10:52:18.189Z,32.08
2018-07-14T10:53:18.991Z,32.34
2018-07-14T10:54:19.766Z,32.23
2018-07-14T10:55:20.537Z,32.17
2018-07-14T10:56:21.307Z,32.05
2018-07-14T10:57:22.082Z,32.06
2018-07-14T10:58:22.879Z,31.94
2018-07-14T10:59:23.649Z,32.12
2018-07-14T11:00:24.422Z,32.03
2018-07-14T11:01:25.194Z,31.96
2018-07-14T11:02:25.969Z,31.75
2018-07-14T11:03:26.765Z,32.04
2018-07-14T11:04:27.547Z,32.06
2018-07-14T11:05:27.309Z,32.05
2018-07-14T11:06:29.081Z,32.14
2018-07-14T11:07:29.856Z,32.02
2018-07-14T11:08:30.653Z,32.10
2018-07-14T11:09:31.427Z,31.91
2018-07-14T11:10:31.197Z,31.83
2018-07-14T11:11:32.975Z,31.77
2018-07-14T11:12:33.742Z,31.79
2018-07-14T11:13:34.547Z,31.76
2018-07-14T11:14:35.316Z,31.77
2018-07-14T11:15:36.091Z,31.70
2018-07-14T11:16:36.859Z,31.95
2018-07-14T11:17:37.636Z,31.83
2018-07-14T11:18:38.433Z,31.86
2018-07-14T11:19:39.201Z,32.08
2018-07-14T11:20:39.973Z,32.06
2018-07-14T11:21:40.751Z,31.85
2018-07-14T11:22:41.533Z,31.68
2018-07-14T11:23:42.386Z,31.82
2018-07-14T11:24:42.103Z,31.91
2018-07-14T11:25:43.874Z,31.96
2018-07-14T11:26:44.815Z,31.99
2018-07-14T11:27:44.511Z,31.99
2018-07-14T11:28:46.387Z,32.35
2018-07-14T11:29:46.140Z,32.23
2018-07-14T11:30:47.916Z,32.37
2018-07-14T11:31:48.686Z,32.41
2018-07-14T11:32:49.459Z,32.60
2018-07-14T11:33:50.340Z,32.39
2018-07-14T11:34:50.090Z,32.77
2018-07-14T11:35:51.859Z,32.98
2018-07-14T11:36:52.632Z,32.98
2018-07-14T11:37:53.409Z,32.70
2018-07-14T11:38:54.216Z,32.69
2018-07-14T11:39:54.991Z,33.00
2018-07-14T11:40:55.766Z,33.17
2018-07-14T11:41:56.538Z,33.21
2018-07-14T11:42:57.325Z,33.25
2018-07-14T11:43:58.200Z,33.26
2018-07-14T11:44:58.958Z,33.43
2018-07-14T11:45:59.729Z,33.79
2018-07-14T11:47:00.581Z,33.76
2018-07-14T11:48:00.408Z,34.01
2018-07-14T11:49:01.113Z,33.62
2018-07-14T11:50:02.883Z,33.57
2018-07-14T11:51:03.658Z,33.33
2018-07-14T11:52:04.432Z,33.15
2018-07-14T11:53:05.204Z,33.32
2018-07-14T11:54:06.037Z,33.24
2018-07-14T11:55:05.772Z,33.44
2018-07-14T11:56:07.547Z,33.16
2018-07-14T11:57:08.320Z,33.10
2018-07-14T11:58:09.097Z,33.07
2018-07-14T11:59:09.903Z,32.96
2018-07-14T12:00:10.670Z,32.69
2018-07-14T12:01:11.438Z,32.75
2018-07-14T12:02:12.212Z,32.56
2018-07-14T12:03:12.984Z,32.53
2018-07-14T12:04:13.782Z,32.47
2018-07-14T12:05:14.555Z,32.38
2018-07-14T12:06:15.338Z,32.35
2018-07-14T12:07:16.171Z,32.12
2018-07-14T12:08:15.876Z,32.11
2018-07-14T12:09:17.670Z,31.71
2018-07-14T12:10:18.448Z,31.52
2018-07-14T12:11:19.219Z,30.88
2018-07-14T12:12:19.991Z,30.61
2018-07-14T12:13:20.794Z,30.09
2018-07-14T12:14:21.560Z,29.82
2018-07-14T12:15:22.333Z,29.23
2018-07-14T12:16:23.468Z,29.01
2018-07-14T12:23:16.409Z,25.07
2018-07-14T12:24:17.178Z,25.00
2018-07-14T12:25:17.972Z,24.80
2018-07-14T12:26:18.743Z,24.68
2018-07-14T12:27:19.518Z,24.52
2018-07-14T12:28:20.285Z,24.73
2018-07-14T12:29:21.055Z,24.65
2018-07-14T12:30:22.067Z,24.47
2018-07-14T12:31:21.625Z,24.54
2018-07-14T12:32:23.400Z,24.93
2018-07-14T12:33:24.170Z,25.70
2018-07-14T12:34:24.961Z,26.41
2018-07-14T12:35:24.739Z,26.77
2018-07-14T12:36:26.510Z,27.10
2018-07-14T12:37:27.282Z,27.58
2018-07-14T12:38:28.054Z,27.93
2018-07-14T12:39:28.824Z,28.07
2018-07-14T12:40:29.624Z,28.61
2018-07-14T12:41:30.392Z,28.93
2018-07-14T12:42:31.163Z,29.14
2018-07-14T12:43:31.938Z,29.48
2018-07-14T12:44:32.708Z,29.64
2018-07-14T12:45:33.508Z,29.84
2018-07-14T12:46:34.283Z,30.16
2018-07-14T12:47:35.054Z,30.52
2018-07-14T12:48:35.826Z,30.71
2018-07-14T12:49:36.593Z,31.22
2018-07-14T12:50:37.389Z,31.40
2018-07-14T12:51:38.164Z,31.47
2018-07-14T12:52:38.934Z,31.81
2018-07-14T12:53:39.767Z,31.81
2018-07-14T12:54:39.483Z,32.15
2018-07-14T12:55:41.277Z,32.31
2018-07-14T12:56:42.048Z,32.40
2018-07-14T12:57:42.823Z,32.48
2018-07-14T12:58:43.597Z,32.34
2018-07-14T12:59:44.366Z,32.50
2018-07-14T13:00:45.163Z,32.82
2018-07-14T13:01:45.932Z,32.74
2018-07-14T13:02:46.707Z,33.04
2018-07-14T13:03:47.479Z,33.16
2018-07-14T13:04:48.256Z,33.30
2018-07-14T13:05:49.046Z,33.03
2018-07-14T13:06:49.817Z,33.05
2018-07-14T13:07:50.599Z,33.01
2018-07-14T13:08:51.366Z,33.30
2018-07-14T13:09:52.138Z,33.30
2018-07-14T13:10:52.937Z,33.15
2018-07-14T13:11:53.713Z,33.27
2018-07-14T13:12:54.481Z,33.18
2018-07-14T13:13:55.256Z,33.36
2018-07-14T13:14:56.028Z,33.38
2018-07-14T13:15:56.828Z,33.40
2018-07-14T13:16:57.600Z,33.37
2018-07-14T13:17:58.369Z,33.35
2018-07-14T13:18:59.145Z,33.55
2018-07-14T13:19:59.918Z,33.63
2018-07-14T13:21:00.718Z,33.77
2018-07-14T13:22:01.490Z,33.69
2018-07-14T13:23:02.260Z,33.60
2018-07-14T13:24:03.047Z,33.60
2018-07-14T13:25:03.819Z,33.90
2018-07-14T13:26:04.609Z,33.92
2018-07-14T13:27:05.398Z,33.96
2018-07-14T13:28:06.159Z,33.81
2018-07-14T13:29:06.931Z,33.84
2018-07-14T13:30:07.709Z,33.95
2018-07-14T13:31:07.498Z,33.95
2018-07-14T13:32:09.269Z,34.00
2018-07-14T13:33:10.044Z,34.15
2018-07-14T13:34:10.815Z,34.08
2018-07-14T13:35:11.598Z,33.99
2018-07-14T13:36:12.389Z,33.79
2018-07-14T13:37:13.157Z,33.92
2018-07-14T13:38:13.929Z,33.72
2018-07-14T13:39:14.702Z,33.92
2018-07-14T13:40:15.471Z,34.00
2018-07-14T13:41:16.269Z,33.83
2018-07-14T13:42:17.037Z,33.86
2018-07-14T13:43:17.825Z,33.88
2018-07-14T13:44:18.584Z,34.03